Terminal Aerodrome Forecast
Issued by NWS

Home | Current Version | Previous Version | Graphics & Text | Print | Product List | Glossary On
Versions: 1 2 3 4 5 6 7 8 9 10 11 12 13 14 15 16 17 18 19 20 21 22 23 24 25
000
FTUS43 KMPX 300200 AAA
TAFAXN
TAF AMD
KAXN 300259Z 3003/3024 09007KT P6SM SCT020
     FM300800 11009KT 4SM BR SCT004 OVC015
      TEMPO 3009/3013 1SM BR BKN004
     FM301400 12014KT P6SM SCT008 OVC015
     FM301600 12016G25KT P6SM SCT015 SCT035
     FM302100 13015G23KT 6SM -SHRA BR SCT025 BKN050=

USA.gov is the U.S. government's official web portal to all federal, state and local government web resources and services.